TPC1496 KHOE-KLAL
Flight info
| Callsign | TPC1496 |
|---|---|
| Flight time | 1h 32m |
| Altitude | 3500 |
| Route | VFR S |
| Aircraft | PA24/L-VGD/C |
Departure
| Time | 2026-04-22 00:15 |
|---|---|
| Airport | Homerville Airport (KHOE) |
Arrival
| Time | 2026-04-22 01:47 |
|---|---|
| Airport | Lakeland Linder International Airport (KLAL) |
| Time | Latitude | Longitude | Altitude | Speed | Heading |
|---|---|---|---|---|---|
| 2026-04-21 23:57 | 31.05281 | -82.76926 | 182 ft | 0 kts | 36° |
| 2026-04-22 00:11 | 31.05281 | -82.76925 | 182 ft | 1 kts | 35° |
| 2026-04-22 00:11 | 31.05287 | -82.76933 | 182 ft | 4 kts | 260° |
| 2026-04-22 00:11 | 31.05311 | -82.76991 | 182 ft | 13 kts | 315° |
| 2026-04-22 00:11 | 31.05389 | -82.77080 | 183 ft | 18 kts | 316° |
| 2026-04-22 00:12 | 31.05475 | -82.77179 | 185 ft | 17 kts | 315° |
| 2026-04-22 00:12 | 31.05559 | -82.77276 | 186 ft | 17 kts | 313° |
| 2026-04-22 00:12 | 31.05637 | -82.77368 | 189 ft | 16 kts | 316° |
| 2026-04-22 00:12 | 31.05718 | -82.77459 | 197 ft | 17 kts | 314° |
| 2026-04-22 00:13 | 31.05806 | -82.77561 | 189 ft | 18 kts | 315° |
| 2026-04-22 00:13 | 31.05900 | -82.77667 | 188 ft | 19 kts | 317° |
| 2026-04-22 00:13 | 31.05981 | -82.77762 | 186 ft | 14 kts | 315° |
| 2026-04-22 00:13 | 31.05999 | -82.77844 | 196 ft | 11 kts | 230° |
| 2026-04-22 00:14 | 31.05970 | -82.77847 | 190 ft | 0 kts | 134° |
| 2026-04-22 00:14 | 31.05818 | -82.77674 | 200 ft | 66 kts | 129° |
| 2026-04-22 00:14 | 31.05433 | -82.77234 | 333 ft | 89 kts | 131° |
| 2026-04-22 00:15 | 31.04966 | -82.76712 | 549 ft | 97 kts | 131° |
| 2026-04-22 00:15 | 31.04477 | -82.76115 | 799 ft | 107 kts | 129° |
| 2026-04-22 00:15 | 31.03953 | -82.75453 | 1037 ft | 114 kts | 128° |
| 2026-04-22 00:15 | 31.03415 | -82.74756 | 1314 ft | 118 kts | 127° |
| 2026-04-22 00:16 | 31.02859 | -82.73998 | 1601 ft | 125 kts | 127° |
| 2026-04-22 00:16 | 31.02294 | -82.73248 | 1851 ft | 125 kts | 127° |
| 2026-04-22 00:16 | 31.01708 | -82.72465 | 1958 ft | 128 kts | 127° |
| 2026-04-22 00:16 | 31.01142 | -82.71661 | 2193 ft | 128 kts | 126° |
| 2026-04-22 00:17 | 31.00560 | -82.70867 | 2386 ft | 130 kts | 129° |
| 2026-04-22 00:17 | 30.99939 | -82.70107 | 2685 ft | 130 kts | 131° |
| 2026-04-22 00:17 | 30.99292 | -82.69356 | 2886 ft | 133 kts | 132° |
| 2026-04-22 00:17 | 30.98620 | -82.68623 | 3140 ft | 132 kts | 135° |
| 2026-04-22 00:18 | 30.97930 | -82.67908 | 3386 ft | 134 kts | 135° |
| 2026-04-22 00:18 | 30.97227 | -82.67193 | 3516 ft | 134 kts | 139° |
| 2026-04-22 00:18 | 30.96413 | -82.66623 | 3527 ft | 139 kts | 151° |
| 2026-04-22 00:18 | 30.95503 | -82.66204 | 3599 ft | 142 kts | 159° |
| 2026-04-22 00:19 | 30.94517 | -82.65946 | 3584 ft | 147 kts | 167° |
| 2026-04-22 00:19 | 30.93502 | -82.65785 | 3600 ft | 147 kts | 169° |
| 2026-04-22 00:19 | 30.92481 | -82.65662 | 3649 ft | 148 kts | 172° |
| 2026-04-22 00:19 | 30.91447 | -82.65585 | 3618 ft | 151 kts | 174° |
| 2026-04-22 00:20 | 30.90394 | -82.65562 | 3596 ft | 151 kts | 176° |
| 2026-04-22 00:20 | 30.89361 | -82.65588 | 3588 ft | 151 kts | 179° |
| 2026-04-22 00:20 | 30.88308 | -82.65683 | 3535 ft | 152 kts | 181° |
| 2026-04-22 00:20 | 30.87245 | -82.65806 | 3510 ft | 151 kts | 182° |
| 2026-04-22 00:21 | 30.86217 | -82.65927 | 3529 ft | 151 kts | 180° |
| 2026-04-22 00:21 | 30.85168 | -82.65952 | 3581 ft | 151 kts | 174° |
| 2026-04-22 00:21 | 30.84122 | -82.65818 | 3582 ft | 151 kts | 164° |
| 2026-04-22 00:21 | 30.83123 | -82.65456 | 3595 ft | 149 kts | 154° |
| 2026-04-22 00:22 | 30.82190 | -82.64934 | 3566 ft | 148 kts | 150° |
| 2026-04-22 00:22 | 30.81265 | -82.64396 | 3481 ft | 150 kts | 150° |
| 2026-04-22 00:22 | 30.80337 | -82.63862 | 3452 ft | 148 kts | 151° |
| 2026-04-22 00:22 | 30.79432 | -82.63321 | 3464 ft | 146 kts | 148° |
| 2026-04-22 00:23 | 30.78536 | -82.62764 | 3495 ft | 146 kts | 149° |
| 2026-04-22 00:23 | 30.77643 | -82.62199 | 3470 ft | 146 kts | 148° |
| 2026-04-22 00:23 | 30.76758 | -82.61628 | 3441 ft | 145 kts | 148° |
| 2026-04-22 00:23 | 30.75867 | -82.61082 | 3448 ft | 145 kts | 151° |
| 2026-04-22 00:24 | 30.74951 | -82.60586 | 3454 ft | 145 kts | 153° |
| 2026-04-22 00:24 | 30.74023 | -82.60129 | 3500 ft | 145 kts | 154° |
| 2026-04-22 00:24 | 30.73096 | -82.59636 | 3497 ft | 148 kts | 152° |
| 2026-04-22 00:24 | 30.72171 | -82.59136 | 3473 ft | 145 kts | 153° |
| 2026-04-22 00:25 | 30.71255 | -82.58638 | 3462 ft | 146 kts | 151° |
| 2026-04-22 00:25 | 30.70349 | -82.58121 | 3435 ft | 146 kts | 151° |
| 2026-04-22 00:25 | 30.69433 | -82.57622 | 3410 ft | 145 kts | 155° |
| 2026-04-22 00:25 | 30.68463 | -82.57297 | 3406 ft | 145 kts | 167° |
| 2026-04-22 00:26 | 30.67464 | -82.57208 | 3454 ft | 144 kts | 174° |
| 2026-04-22 00:26 | 30.66457 | -82.57176 | 3448 ft | 145 kts | 175° |
| 2026-04-22 00:26 | 30.65447 | -82.57145 | 3471 ft | 144 kts | 175° |
| 2026-04-22 00:26 | 30.64438 | -82.57108 | 3511 ft | 146 kts | 174° |
| 2026-04-22 00:27 | 30.63433 | -82.57039 | 3555 ft | 145 kts | 171° |
| 2026-04-22 00:27 | 30.62443 | -82.56903 | 3563 ft | 145 kts | 170° |
| 2026-04-22 00:27 | 30.61441 | -82.56791 | 3575 ft | 145 kts | 171° |
| 2026-04-22 00:27 | 30.60419 | -82.56733 | 3549 ft | 148 kts | 175° |
| 2026-04-22 00:28 | 30.59399 | -82.56714 | 3562 ft | 146 kts | 174° |
| 2026-04-22 00:28 | 30.58384 | -82.56650 | 3537 ft | 147 kts | 172° |
| 2026-04-22 00:28 | 30.57371 | -82.56542 | 3537 ft | 144 kts | 170° |
| 2026-04-22 00:28 | 30.56375 | -82.56400 | 3532 ft | 145 kts | 169° |
| 2026-04-22 00:29 | 30.55376 | -82.56232 | 3516 ft | 145 kts | 168° |
| 2026-04-22 00:29 | 30.54382 | -82.56060 | 3512 ft | 144 kts | 168° |
| 2026-04-22 00:29 | 30.53387 | -82.55915 | 3498 ft | 144 kts | 170° |
| 2026-04-22 00:29 | 30.52387 | -82.55804 | 3491 ft | 145 kts | 172° |
| 2026-04-22 00:30 | 30.51387 | -82.55724 | 3493 ft | 143 kts | 173° |
| 2026-04-22 00:30 | 30.50383 | -82.55699 | 3473 ft | 146 kts | 178° |
| 2026-04-22 00:30 | 30.49370 | -82.55793 | 3475 ft | 146 kts | 183° |
| 2026-04-22 00:30 | 30.48361 | -82.55942 | 3471 ft | 147 kts | 184° |
| 2026-04-22 00:31 | 30.47351 | -82.56107 | 3486 ft | 145 kts | 184° |
| 2026-04-22 00:31 | 30.46691 | -82.56218 | 3535 ft | 145 kts | 184° |
| 2026-04-22 00:31 | 30.45345 | -82.56412 | 3573 ft | 147 kts | 185° |
| 2026-04-22 00:31 | 30.44334 | -82.56608 | 3549 ft | 147 kts | 186° |
| 2026-04-22 00:32 | 30.43671 | -82.56751 | 3536 ft | 147 kts | 187° |
| 2026-04-22 00:32 | 30.42666 | -82.56980 | 3514 ft | 148 kts | 188° |
| 2026-04-22 00:32 | 30.41665 | -82.57232 | 3499 ft | 147 kts | 189° |
| 2026-04-22 00:32 | 30.40670 | -82.57508 | 3481 ft | 147 kts | 190° |
| 2026-04-22 00:33 | 30.39678 | -82.57807 | 3467 ft | 147 kts | 191° |
| 2026-04-22 00:33 | 30.38694 | -82.58109 | 3473 ft | 146 kts | 191° |
| 2026-04-22 00:33 | 30.37711 | -82.58412 | 3459 ft | 147 kts | 191° |
| 2026-04-22 00:33 | 30.36720 | -82.58708 | 3466 ft | 147 kts | 190° |
| 2026-04-22 00:34 | 30.35727 | -82.58978 | 3466 ft | 147 kts | 187° |
| 2026-04-22 00:34 | 30.34721 | -82.59167 | 3469 ft | 146 kts | 184° |
| 2026-04-22 00:34 | 30.33711 | -82.59320 | 3474 ft | 146 kts | 184° |
| 2026-04-22 00:34 | 30.32707 | -82.59463 | 3471 ft | 146 kts | 184° |
| 2026-04-22 00:35 | 30.31700 | -82.59628 | 3464 ft | 146 kts | 186° |
| 2026-04-22 00:35 | 30.30703 | -82.59858 | 3457 ft | 146 kts | 189° |
| 2026-04-22 00:35 | 30.29722 | -82.60164 | 3457 ft | 145 kts | 194° |
| 2026-04-22 00:35 | 30.28797 | -82.60647 | 3427 ft | 148 kts | 207° |
| 2026-04-22 00:36 | 30.27872 | -82.61172 | 3437 ft | 147 kts | 198° |
| 2026-04-22 00:36 | 30.26912 | -82.61545 | 3519 ft | 145 kts | 191° |
| 2026-04-22 00:36 | 30.25939 | -82.61804 | 3524 ft | 148 kts | 187° |
| 2026-04-22 00:36 | 30.24928 | -82.62027 | 3500 ft | 147 kts | 187° |
| 2026-04-22 00:37 | 30.23930 | -82.62264 | 3481 ft | 147 kts | 188° |
| 2026-04-22 00:37 | 30.22929 | -82.62543 | 3529 ft | 148 kts | 192° |
| 2026-04-22 00:37 | 30.21932 | -82.62858 | 3600 ft | 149 kts | 190° |
| 2026-04-22 00:37 | 30.20915 | -82.63108 | 3578 ft | 150 kts | 187° |
| 2026-04-22 00:38 | 30.19894 | -82.63300 | 3600 ft | 148 kts | 186° |
| 2026-04-22 00:38 | 30.18872 | -82.63462 | 3609 ft | 149 kts | 180° |
| 2026-04-22 00:38 | 30.17841 | -82.63422 | 3602 ft | 148 kts | 171° |
| 2026-04-22 00:38 | 30.16829 | -82.63225 | 3600 ft | 147 kts | 166° |
| 2026-04-22 00:39 | 30.15835 | -82.62949 | 3593 ft | 147 kts | 163° |
| 2026-04-22 00:39 | 30.14845 | -82.62643 | 3611 ft | 148 kts | 163° |
| 2026-04-22 00:39 | 30.13850 | -82.62317 | 3559 ft | 148 kts | 162° |
| 2026-04-22 00:39 | 30.12860 | -82.62001 | 3582 ft | 148 kts | 163° |
| 2026-04-22 00:40 | 30.11860 | -82.61699 | 3574 ft | 149 kts | 164° |
| 2026-04-22 00:40 | 30.10858 | -82.61388 | 3587 ft | 149 kts | 162° |
| 2026-04-22 00:40 | 30.09858 | -82.61083 | 3605 ft | 148 kts | 165° |
| 2026-04-22 00:40 | 30.08840 | -82.60849 | 3575 ft | 151 kts | 167° |
| 2026-04-22 00:41 | 30.07802 | -82.60634 | 3547 ft | 151 kts | 167° |
| 2026-04-22 00:41 | 30.06778 | -82.60430 | 3499 ft | 149 kts | 167° |
| 2026-04-22 00:41 | 30.05768 | -82.60215 | 3559 ft | 146 kts | 166° |
| 2026-04-22 00:41 | 30.04773 | -82.59964 | 3499 ft | 148 kts | 164° |
| 2026-04-22 00:42 | 30.03783 | -82.59680 | 3460 ft | 144 kts | 163° |
| 2026-04-22 00:42 | 30.02813 | -82.59384 | 3426 ft | 145 kts | 162° |
| 2026-04-22 00:42 | 30.01855 | -82.59076 | 3440 ft | 144 kts | 162° |
| 2026-04-22 00:42 | 30.00886 | -82.58802 | 3469 ft | 144 kts | 165° |
| 2026-04-22 00:43 | 29.99919 | -82.58502 | 3420 ft | 144 kts | 161° |
| 2026-04-22 00:43 | 29.98962 | -82.58169 | 3404 ft | 142 kts | 161° |
| 2026-04-22 00:43 | 29.98021 | -82.57836 | 3396 ft | 140 kts | 160° |
| 2026-04-22 00:43 | 29.97095 | -82.57523 | 3480 ft | 138 kts | 161° |
| 2026-04-22 00:44 | 29.96165 | -82.57212 | 3470 ft | 139 kts | 161° |
| 2026-04-22 00:44 | 29.95238 | -82.56914 | 3478 ft | 138 kts | 163° |
| 2026-04-22 00:44 | 29.94311 | -82.56623 | 3457 ft | 138 kts | 162° |
| 2026-04-22 00:44 | 29.93374 | -82.56348 | 3527 ft | 139 kts | 163° |
| 2026-04-22 00:45 | 29.92425 | -82.56063 | 3491 ft | 141 kts | 163° |
| 2026-04-22 00:45 | 29.91476 | -82.55814 | 3516 ft | 139 kts | 165° |
| 2026-04-22 00:45 | 29.90523 | -82.55598 | 3514 ft | 140 kts | 167° |
| 2026-04-22 00:45 | 29.89561 | -82.55418 | 3533 ft | 140 kts | 169° |
| 2026-04-22 00:46 | 29.88597 | -82.55274 | 3595 ft | 140 kts | 170° |
| 2026-04-22 00:46 | 29.87625 | -82.55135 | 3622 ft | 141 kts | 170° |
| 2026-04-22 00:46 | 29.86654 | -82.54997 | 3628 ft | 141 kts | 168° |
| 2026-04-22 00:46 | 29.85692 | -82.54796 | 3655 ft | 140 kts | 166° |
| 2026-04-22 00:47 | 29.84739 | -82.54555 | 3667 ft | 140 kts | 164° |
| 2026-04-22 00:47 | 29.83760 | -82.54432 | 3623 ft | 144 kts | 170° |
| 2026-04-22 00:47 | 29.82824 | -82.54121 | 3637 ft | 141 kts | 153° |
| 2026-04-22 00:47 | 29.81957 | -82.53596 | 3717 ft | 141 kts | 148° |
| 2026-04-22 00:48 | 29.81119 | -82.53016 | 3730 ft | 140 kts | 147° |
| 2026-04-22 00:48 | 29.80309 | -82.52382 | 3762 ft | 141 kts | 142° |
| 2026-04-22 00:48 | 29.79542 | -82.51673 | 3800 ft | 141 kts | 138° |
| 2026-04-22 00:48 | 29.78803 | -82.50927 | 3803 ft | 142 kts | 139° |
| 2026-04-22 00:49 | 29.78030 | -82.50201 | 3780 ft | 143 kts | 141° |
| 2026-04-22 00:49 | 29.77243 | -82.49513 | 3664 ft | 142 kts | 142° |
| 2026-04-22 00:49 | 29.76451 | -82.48847 | 3588 ft | 141 kts | 143° |
| 2026-04-22 00:49 | 29.75631 | -82.48211 | 3569 ft | 143 kts | 145° |
| 2026-04-22 00:50 | 29.74798 | -82.47576 | 3473 ft | 144 kts | 145° |
| 2026-04-22 00:50 | 29.73957 | -82.46993 | 3506 ft | 138 kts | 147° |
| 2026-04-22 00:50 | 29.73111 | -82.46441 | 3460 ft | 142 kts | 149° |
| 2026-04-22 00:50 | 29.72237 | -82.45914 | 3426 ft | 141 kts | 151° |
| 2026-04-22 00:51 | 29.71357 | -82.45432 | 3406 ft | 140 kts | 152° |
| 2026-04-22 00:51 | 29.70476 | -82.44971 | 3392 ft | 140 kts | 153° |
| 2026-04-22 00:51 | 29.69597 | -82.44494 | 3399 ft | 139 kts | 150° |
| 2026-04-22 00:51 | 29.68743 | -82.43977 | 3427 ft | 137 kts | 148° |
| 2026-04-22 00:52 | 29.67923 | -82.43415 | 3524 ft | 138 kts | 146° |
| 2026-04-22 00:52 | 29.67120 | -82.42814 | 3603 ft | 137 kts | 144° |
| 2026-04-22 00:52 | 29.66319 | -82.42216 | 3590 ft | 139 kts | 145° |
| 2026-04-22 00:52 | 29.65494 | -82.41615 | 3624 ft | 141 kts | 146° |
| 2026-04-22 00:53 | 29.64662 | -82.41034 | 3656 ft | 141 kts | 147° |
| 2026-04-22 00:53 | 29.63797 | -82.40501 | 3646 ft | 141 kts | 151° |
| 2026-04-22 00:53 | 29.62918 | -82.40010 | 3619 ft | 141 kts | 150° |
| 2026-04-22 00:53 | 29.62060 | -82.39460 | 3628 ft | 141 kts | 147° |
| 2026-04-22 00:54 | 29.61224 | -82.38885 | 3642 ft | 140 kts | 147° |
| 2026-04-22 00:54 | 29.60387 | -82.38308 | 3612 ft | 140 kts | 147° |
| 2026-04-22 00:54 | 29.59547 | -82.37737 | 3571 ft | 139 kts | 147° |
| 2026-04-22 00:54 | 29.58712 | -82.37167 | 3610 ft | 140 kts | 146° |
| 2026-04-22 00:55 | 29.57887 | -82.36541 | 3598 ft | 144 kts | 143° |
| 2026-04-22 00:55 | 29.57083 | -82.35874 | 3579 ft | 141 kts | 142° |
| 2026-04-22 00:55 | 29.55534 | -82.34491 | 3479 ft | 141 kts | 139° |
| 2026-04-22 00:56 | 29.54769 | -82.33789 | 3461 ft | 141 kts | 139° |
| 2026-04-22 00:56 | 29.54003 | -82.33083 | 3406 ft | 142 kts | 139° |
| 2026-04-22 00:56 | 29.53240 | -82.32369 | 3371 ft | 141 kts | 138° |
| 2026-04-22 00:56 | 29.52492 | -82.31652 | 3325 ft | 140 kts | 137° |
| 2026-04-22 00:57 | 29.51750 | -82.30933 | 3295 ft | 139 kts | 139° |
| 2026-04-22 00:57 | 29.50991 | -82.30259 | 3275 ft | 138 kts | 142° |
| 2026-04-22 00:57 | 29.50203 | -82.29650 | 3279 ft | 136 kts | 145° |
| 2026-04-22 00:57 | 29.49381 | -82.29100 | 3248 ft | 137 kts | 149° |
| 2026-04-22 00:58 | 29.48537 | -82.28623 | 3264 ft | 134 kts | 151° |
| 2026-04-22 00:58 | 29.47692 | -82.28183 | 3294 ft | 133 kts | 152° |
| 2026-04-22 00:58 | 29.46842 | -82.27761 | 3321 ft | 133 kts | 153° |
| 2026-04-22 00:58 | 29.45992 | -82.27360 | 3345 ft | 133 kts | 155° |
| 2026-04-22 00:59 | 29.45130 | -82.26989 | 3384 ft | 131 kts | 156° |
| 2026-04-22 00:59 | 29.44267 | -82.26645 | 3425 ft | 132 kts | 157° |
| 2026-04-22 00:59 | 29.43388 | -82.26324 | 3450 ft | 133 kts | 159° |
| 2026-04-22 00:59 | 29.42494 | -82.26036 | 3490 ft | 133 kts | 161° |
| 2026-04-22 01:00 | 29.41610 | -82.25764 | 3512 ft | 133 kts | 159° |
| 2026-04-22 01:00 | 29.40723 | -82.25457 | 3563 ft | 132 kts | 158° |
| 2026-04-22 01:00 | 29.39851 | -82.25119 | 3599 ft | 133 kts | 156° |
| 2026-04-22 01:00 | 29.38989 | -82.24736 | 3638 ft | 133 kts | 154° |
| 2026-04-22 01:01 | 29.38124 | -82.24343 | 3661 ft | 134 kts | 155° |
| 2026-04-22 01:01 | 29.37245 | -82.23967 | 3702 ft | 135 kts | 155° |
| 2026-04-22 01:01 | 29.36368 | -82.23577 | 3711 ft | 137 kts | 155° |
| 2026-04-22 01:01 | 29.35467 | -82.23202 | 3758 ft | 138 kts | 158° |
| 2026-04-22 01:02 | 29.34550 | -82.22851 | 3753 ft | 141 kts | 158° |
| 2026-04-22 01:02 | 29.33618 | -82.22500 | 3749 ft | 141 kts | 157° |
| 2026-04-22 01:02 | 29.32698 | -82.22089 | 3717 ft | 142 kts | 153° |
| 2026-04-22 01:02 | 29.31808 | -82.21615 | 3741 ft | 141 kts | 151° |
| 2026-04-22 01:03 | 29.30910 | -82.21141 | 3731 ft | 143 kts | 152° |
| 2026-04-22 01:03 | 29.29996 | -82.20695 | 3772 ft | 142 kts | 154° |
| 2026-04-22 01:03 | 29.29077 | -82.20255 | 3750 ft | 145 kts | 153° |
| 2026-04-22 01:03 | 29.28153 | -82.19803 | 3744 ft | 143 kts | 152° |
| 2026-04-22 01:04 | 29.27248 | -82.19320 | 3731 ft | 144 kts | 150° |
| 2026-04-22 01:04 | 29.26352 | -82.18784 | 3709 ft | 145 kts | 148° |
| 2026-04-22 01:04 | 29.25461 | -82.18247 | 3707 ft | 145 kts | 148° |
| 2026-04-22 01:04 | 29.24565 | -82.17708 | 3705 ft | 146 kts | 149° |
| 2026-04-22 01:05 | 29.23662 | -82.17176 | 3684 ft | 146 kts | 149° |
| 2026-04-22 01:05 | 29.22760 | -82.16636 | 3669 ft | 146 kts | 148° |
| 2026-04-22 01:05 | 29.21865 | -82.16084 | 3613 ft | 146 kts | 148° |
| 2026-04-22 01:05 | 29.20979 | -82.15524 | 3585 ft | 145 kts | 147° |
| 2026-04-22 01:06 | 29.20110 | -82.14951 | 3557 ft | 146 kts | 146° |
| 2026-04-22 01:06 | 29.19246 | -82.14353 | 3519 ft | 144 kts | 145° |
| 2026-04-22 01:06 | 29.18386 | -82.13771 | 3513 ft | 143 kts | 146° |
| 2026-04-22 01:06 | 29.17513 | -82.13219 | 3479 ft | 144 kts | 148° |
| 2026-04-22 01:07 | 29.16613 | -82.12709 | 3471 ft | 145 kts | 150° |
| 2026-04-22 01:07 | 29.15711 | -82.12193 | 3421 ft | 145 kts | 149° |
| 2026-04-22 01:07 | 29.14824 | -82.11675 | 3401 ft | 142 kts | 148° |
| 2026-04-22 01:07 | 29.13952 | -82.11153 | 3407 ft | 142 kts | 149° |
| 2026-04-22 01:08 | 29.13067 | -82.10653 | 3418 ft | 143 kts | 151° |
| 2026-04-22 01:08 | 29.12149 | -82.10185 | 3395 ft | 143 kts | 152° |
| 2026-04-22 01:08 | 29.11244 | -82.09746 | 3361 ft | 143 kts | 153° |
| 2026-04-22 01:08 | 29.10334 | -82.09326 | 3384 ft | 141 kts | 154° |
| 2026-04-22 01:09 | 29.09419 | -82.08918 | 3370 ft | 141 kts | 153° |
| 2026-04-22 01:09 | 29.08553 | -82.08430 | 3402 ft | 137 kts | 146° |
| 2026-04-22 01:09 | 29.07743 | -82.07854 | 3408 ft | 138 kts | 142° |
| 2026-04-22 01:09 | 29.06959 | -82.07232 | 3445 ft | 137 kts | 140° |
| 2026-04-22 01:10 | 29.06193 | -82.06584 | 3467 ft | 137 kts | 139° |
| 2026-04-22 01:10 | 29.05440 | -82.05919 | 3512 ft | 136 kts | 137° |
| 2026-04-22 01:10 | 29.04702 | -82.05246 | 3525 ft | 135 kts | 137° |
| 2026-04-22 01:10 | 29.03967 | -82.04571 | 3535 ft | 136 kts | 137° |
| 2026-04-22 01:11 | 29.03229 | -82.03903 | 3571 ft | 136 kts | 139° |
| 2026-04-22 01:11 | 29.02468 | -82.03258 | 3621 ft | 137 kts | 140° |
| 2026-04-22 01:11 | 29.01675 | -82.02633 | 3660 ft | 138 kts | 141° |
| 2026-04-22 01:11 | 29.00884 | -82.01994 | 3637 ft | 140 kts | 139° |
| 2026-04-22 01:12 | 29.00140 | -82.01291 | 3640 ft | 138 kts | 134° |
| 2026-04-22 01:12 | 28.99448 | -82.00538 | 3628 ft | 138 kts | 131° |
| 2026-04-22 01:12 | 28.98770 | -81.99756 | 3621 ft | 138 kts | 131° |
| 2026-04-22 01:12 | 28.98096 | -81.98970 | 3620 ft | 139 kts | 131° |
| 2026-04-22 01:13 | 28.97424 | -81.98178 | 3627 ft | 138 kts | 130° |
| 2026-04-22 01:13 | 28.96762 | -81.97386 | 3626 ft | 137 kts | 130° |
| 2026-04-22 01:13 | 28.96112 | -81.96597 | 3620 ft | 136 kts | 130° |
| 2026-04-22 01:13 | 28.95461 | -81.95808 | 3611 ft | 137 kts | 130° |
| 2026-04-22 01:14 | 28.94774 | -81.95048 | 3602 ft | 138 kts | 134° |
| 2026-04-22 01:14 | 28.94046 | -81.94336 | 3574 ft | 138 kts | 137° |
| 2026-04-22 01:14 | 28.93275 | -81.93668 | 3578 ft | 140 kts | 140° |
| 2026-04-22 01:14 | 28.92475 | -81.93042 | 3552 ft | 139 kts | 143° |
| 2026-04-22 01:15 | 28.91637 | -81.92484 | 3537 ft | 141 kts | 150° |
| 2026-04-22 01:15 | 28.90722 | -81.92065 | 3522 ft | 143 kts | 156° |
| 2026-04-22 01:15 | 28.89775 | -81.91717 | 3533 ft | 143 kts | 158° |
| 2026-04-22 01:15 | 28.88822 | -81.91408 | 3507 ft | 145 kts | 160° |
| 2026-04-22 01:16 | 28.87836 | -81.91131 | 3508 ft | 144 kts | 163° |
| 2026-04-22 01:16 | 28.86862 | -81.90922 | 3474 ft | 145 kts | 165° |
| 2026-04-22 01:16 | 28.85874 | -81.90732 | 3527 ft | 142 kts | 166° |
| 2026-04-22 01:16 | 28.84899 | -81.90542 | 3542 ft | 144 kts | 165° |
| 2026-04-22 01:17 | 28.83912 | -81.90326 | 3549 ft | 144 kts | 163° |
| 2026-04-22 01:17 | 28.82946 | -81.90084 | 3579 ft | 142 kts | 162° |
| 2026-04-22 01:17 | 28.81979 | -81.89836 | 3567 ft | 144 kts | 162° |
| 2026-04-22 01:17 | 28.80991 | -81.89647 | 3543 ft | 144 kts | 168° |
| 2026-04-22 01:18 | 28.79982 | -81.89585 | 3519 ft | 146 kts | 173° |
| 2026-04-22 01:18 | 28.78963 | -81.89595 | 3517 ft | 147 kts | 175° |
| 2026-04-22 01:18 | 28.77943 | -81.89640 | 3501 ft | 147 kts | 178° |
| 2026-04-22 01:18 | 28.76922 | -81.89701 | 3490 ft | 147 kts | 176° |
| 2026-04-22 01:19 | 28.75902 | -81.89724 | 3488 ft | 146 kts | 175° |
| 2026-04-22 01:19 | 28.74883 | -81.89742 | 3478 ft | 146 kts | 174° |
| 2026-04-22 01:19 | 28.73867 | -81.89750 | 3464 ft | 145 kts | 173° |
| 2026-04-22 01:19 | 28.72856 | -81.89720 | 3460 ft | 145 kts | 172° |
| 2026-04-22 01:20 | 28.71843 | -81.89671 | 3457 ft | 146 kts | 171° |
| 2026-04-22 01:20 | 28.70838 | -81.89618 | 3447 ft | 144 kts | 171° |
| 2026-04-22 01:20 | 28.69839 | -81.89556 | 3439 ft | 144 kts | 170° |
| 2026-04-22 01:20 | 28.68834 | -81.89487 | 3427 ft | 145 kts | 171° |
| 2026-04-22 01:21 | 28.67824 | -81.89428 | 3424 ft | 145 kts | 171° |
| 2026-04-22 01:21 | 28.66819 | -81.89360 | 3432 ft | 143 kts | 170° |
| 2026-04-22 01:21 | 28.65829 | -81.89264 | 3429 ft | 143 kts | 168° |
| 2026-04-22 01:21 | 28.64842 | -81.89126 | 3454 ft | 142 kts | 166° |
| 2026-04-22 01:22 | 28.64197 | -81.89012 | 3478 ft | 141 kts | 165° |
| 2026-04-22 01:22 | 28.63230 | -81.88829 | 3484 ft | 141 kts | 165° |
| 2026-04-22 01:22 | 28.62259 | -81.88650 | 3505 ft | 141 kts | 164° |
| 2026-04-22 01:22 | 28.61290 | -81.88455 | 3542 ft | 141 kts | 163° |
| 2026-04-22 01:23 | 28.60327 | -81.88238 | 3551 ft | 142 kts | 162° |
| 2026-04-22 01:23 | 28.59357 | -81.87991 | 3543 ft | 143 kts | 161° |
| 2026-04-22 01:23 | 28.58398 | -81.87722 | 3541 ft | 142 kts | 159° |
| 2026-04-22 01:23 | 28.57442 | -81.87419 | 3522 ft | 143 kts | 158° |
| 2026-04-22 01:24 | 28.56493 | -81.87065 | 3505 ft | 143 kts | 155° |
| 2026-04-22 01:24 | 28.55552 | -81.86709 | 3476 ft | 142 kts | 156° |
| 2026-04-22 01:24 | 28.54602 | -81.86386 | 3461 ft | 144 kts | 158° |
| 2026-04-22 01:24 | 28.53639 | -81.86085 | 3472 ft | 143 kts | 159° |
| 2026-04-22 01:25 | 28.52673 | -81.85799 | 3460 ft | 144 kts | 160° |
| 2026-04-22 01:25 | 28.51699 | -81.85551 | 3450 ft | 143 kts | 162° |
| 2026-04-22 01:25 | 28.50721 | -81.85346 | 3426 ft | 144 kts | 164° |
| 2026-04-22 01:25 | 28.49725 | -81.85180 | 3396 ft | 145 kts | 166° |
| 2026-04-22 01:26 | 28.48733 | -81.85052 | 3405 ft | 143 kts | 168° |
| 2026-04-22 01:26 | 28.47750 | -81.84946 | 3411 ft | 141 kts | 166° |
| 2026-04-22 01:26 | 28.46777 | -81.84789 | 3432 ft | 141 kts | 163° |
| 2026-04-22 01:26 | 28.45814 | -81.84584 | 3441 ft | 140 kts | 161° |
| 2026-04-22 01:27 | 28.44872 | -81.84333 | 3451 ft | 139 kts | 159° |
| 2026-04-22 01:27 | 28.43941 | -81.84053 | 3446 ft | 139 kts | 158° |
| 2026-04-22 01:27 | 28.43008 | -81.83757 | 3473 ft | 138 kts | 159° |
| 2026-04-22 01:27 | 28.42064 | -81.83565 | 3401 ft | 140 kts | 167° |
| 2026-04-22 01:28 | 28.41094 | -81.83514 | 3288 ft | 137 kts | 172° |
| 2026-04-22 01:28 | 28.40143 | -81.83502 | 3206 ft | 134 kts | 173° |
| 2026-04-22 01:28 | 28.39211 | -81.83509 | 3157 ft | 134 kts | 172° |
| 2026-04-22 01:28 | 28.38285 | -81.83505 | 3080 ft | 133 kts | 172° |
| 2026-04-22 01:29 | 28.37377 | -81.83510 | 2996 ft | 132 kts | 172° |
| 2026-04-22 01:29 | 28.36466 | -81.83524 | 2925 ft | 130 kts | 173° |
| 2026-04-22 01:29 | 28.35552 | -81.83547 | 2810 ft | 129 kts | 172° |
| 2026-04-22 01:29 | 28.34665 | -81.83536 | 2703 ft | 128 kts | 170° |
| 2026-04-22 01:30 | 28.33766 | -81.83532 | 2624 ft | 130 kts | 173° |
| 2026-04-22 01:30 | 28.32871 | -81.83578 | 2520 ft | 129 kts | 174° |
| 2026-04-22 01:30 | 28.31969 | -81.83637 | 2424 ft | 130 kts | 174° |
| 2026-04-22 01:30 | 28.31077 | -81.83673 | 2473 ft | 128 kts | 171° |
| 2026-04-22 01:31 | 28.30188 | -81.83660 | 2406 ft | 127 kts | 169° |
| 2026-04-22 01:31 | 28.29303 | -81.83618 | 2323 ft | 128 kts | 172° |
| 2026-04-22 01:31 | 28.28401 | -81.83763 | 2284 ft | 133 kts | 176° |
| 2026-04-22 01:31 | 28.27504 | -81.83710 | 2185 ft | 126 kts | 166° |
| 2026-04-22 01:32 | 28.26649 | -81.83579 | 2065 ft | 122 kts | 160° |
| 2026-04-22 01:32 | 28.25832 | -81.83388 | 1988 ft | 117 kts | 159° |
| 2026-04-22 01:32 | 28.25050 | -81.83193 | 1890 ft | 114 kts | 159° |
| 2026-04-22 01:32 | 28.24295 | -81.83000 | 1861 ft | 109 kts | 158° |
| 2026-04-22 01:33 | 28.23565 | -81.82815 | 1760 ft | 107 kts | 158° |
| 2026-04-22 01:33 | 28.22845 | -81.82638 | 1707 ft | 103 kts | 157° |
| 2026-04-22 01:33 | 28.22150 | -81.82446 | 1661 ft | 101 kts | 155° |
| 2026-04-22 01:33 | 28.21500 | -81.82269 | 1576 ft | 94 kts | 155° |
| 2026-04-22 01:34 | 28.20859 | -81.82096 | 1491 ft | 95 kts | 154° |
| 2026-04-22 01:34 | 28.20222 | -81.81902 | 1401 ft | 93 kts | 153° |
| 2026-04-22 01:34 | 28.19603 | -81.81726 | 1338 ft | 90 kts | 157° |
| 2026-04-22 01:34 | 28.18974 | -81.81590 | 1289 ft | 94 kts | 158° |
| 2026-04-22 01:35 | 28.18319 | -81.81449 | 1238 ft | 97 kts | 158° |
| 2026-04-22 01:35 | 28.17657 | -81.81350 | 1235 ft | 96 kts | 162° |
| 2026-04-22 01:35 | 28.16994 | -81.81278 | 1282 ft | 95 kts | 161° |
| 2026-04-22 01:35 | 28.16323 | -81.81289 | 1277 ft | 98 kts | 174° |
| 2026-04-22 01:36 | 28.15639 | -81.81454 | 1267 ft | 103 kts | 182° |
| 2026-04-22 01:36 | 28.14950 | -81.81632 | 1283 ft | 101 kts | 183° |
| 2026-04-22 01:36 | 28.14255 | -81.81899 | 1328 ft | 110 kts | 192° |
| 2026-04-22 01:36 | 28.13528 | -81.82238 | 1265 ft | 114 kts | 195° |
| 2026-04-22 01:37 | 28.12831 | -81.82645 | 1247 ft | 112 kts | 205° |
| 2026-04-22 01:37 | 28.12167 | -81.83119 | 1209 ft | 115 kts | 207° |
| 2026-04-22 01:37 | 28.11604 | -81.83764 | 1234 ft | 117 kts | 228° |
| 2026-04-22 01:37 | 28.11196 | -81.84581 | 1236 ft | 119 kts | 240° |
| 2026-04-22 01:38 | 28.10883 | -81.85435 | 1243 ft | 116 kts | 244° |
| 2026-04-22 01:38 | 28.10602 | -81.86285 | 1251 ft | 118 kts | 247° |
| 2026-04-22 01:38 | 28.10343 | -81.87173 | 1232 ft | 120 kts | 249° |
| 2026-04-22 01:38 | 28.10100 | -81.88071 | 1244 ft | 119 kts | 249° |
| 2026-04-22 01:39 | 28.09832 | -81.88959 | 1228 ft | 119 kts | 245° |
| 2026-04-22 01:39 | 28.09515 | -81.89813 | 1215 ft | 117 kts | 242° |
| 2026-04-22 01:39 | 28.09199 | -81.90665 | 1206 ft | 117 kts | 245° |
| 2026-04-22 01:39 | 28.08908 | -81.91524 | 1238 ft | 117 kts | 246° |
| 2026-04-22 01:40 | 28.08697 | -81.92430 | 1253 ft | 122 kts | 256° |
| 2026-04-22 01:40 | 28.08568 | -81.93361 | 1280 ft | 117 kts | 259° |
| 2026-04-22 01:40 | 28.08479 | -81.94274 | 1227 ft | 116 kts | 261° |
| 2026-04-22 01:40 | 28.08370 | -81.95189 | 1236 ft | 116 kts | 261° |
| 2026-04-22 01:41 | 28.08252 | -81.96099 | 1244 ft | 118 kts | 259° |
| 2026-04-22 01:41 | 28.08131 | -81.97025 | 1268 ft | 119 kts | 257° |
| 2026-04-22 01:41 | 28.07797 | -81.97865 | 1223 ft | 116 kts | 229° |
| 2026-04-22 01:41 | 28.07318 | -81.98598 | 1175 ft | 115 kts | 227° |
| 2026-04-22 01:42 | 28.06834 | -81.99291 | 1181 ft | 112 kts | 226° |
| 2026-04-22 01:42 | 28.06358 | -81.99991 | 1173 ft | 112 kts | 226° |
| 2026-04-22 01:42 | 28.05894 | -82.00685 | 1201 ft | 111 kts | 225° |
| 2026-04-22 01:42 | 28.05418 | -82.01356 | 1212 ft | 107 kts | 217° |
| 2026-04-22 01:43 | 28.04770 | -82.01735 | 1226 ft | 104 kts | 191° |
| 2026-04-22 01:43 | 28.04071 | -82.01869 | 1228 ft | 100 kts | 178° |
| 2026-04-22 01:43 | 28.03384 | -82.01966 | 1217 ft | 98 kts | 174° |
| 2026-04-22 01:43 | 28.02716 | -82.02013 | 1217 ft | 96 kts | 171° |
| 2026-04-22 01:44 | 28.02051 | -82.02033 | 1205 ft | 95 kts | 169° |
| 2026-04-22 01:44 | 28.01407 | -82.02041 | 1165 ft | 91 kts | 168° |
| 2026-04-22 01:44 | 28.00777 | -82.02137 | 1128 ft | 93 kts | 195° |
| 2026-04-22 01:44 | 28.00404 | -82.02764 | 1025 ft | 104 kts | 254° |
| 2026-04-22 01:45 | 28.00376 | -82.03589 | 994 ft | 104 kts | 269° |
| 2026-04-22 01:45 | 28.00372 | -82.04394 | 977 ft | 101 kts | 270° |
| 2026-04-22 01:45 | 28.00063 | -82.05059 | 834 ft | 99 kts | 202° |
| 2026-04-22 01:45 | 27.99450 | -82.05210 | 688 ft | 85 kts | 172° |
| 2026-04-22 01:46 | 27.98980 | -82.04927 | 580 ft | 74 kts | 106° |
| 2026-04-22 01:46 | 27.98983 | -82.04397 | 444 ft | 69 kts | 78° |
| 2026-04-22 01:46 | 27.99035 | -82.03852 | 355 ft | 69 kts | 90° |
| 2026-04-22 01:46 | 27.99028 | -82.03330 | 304 ft | 64 kts | 88° |
| 2026-04-22 01:47 | 27.99037 | -82.02861 | 246 ft | 56 kts | 89° |
| 2026-04-22 01:47 | 27.99039 | -82.02434 | 202 ft | 53 kts | 90° |
| 2026-04-22 01:47 | 27.99037 | -82.02030 | 167 ft | 49 kts | 89° |
| 2026-04-22 01:47 | 27.99039 | -82.01691 | 141 ft | 33 kts | 90° |
| 2026-04-22 01:48 | 27.99040 | -82.01505 | 141 ft | 18 kts | 90° |
| 2026-04-22 01:48 | 27.99039 | -82.01367 | 143 ft | 20 kts | 90° |
| 2026-04-22 01:48 | 27.99041 | -82.01199 | 143 ft | 20 kts | 89° |
| 2026-04-22 01:48 | 27.99042 | -82.01061 | 144 ft | 16 kts | 89° |
| 2026-04-22 01:49 | 27.99041 | -82.00933 | 146 ft | 16 kts | 89° |
| 2026-04-22 01:49 | 27.99041 | -82.00844 | 147 ft | 9 kts | 92° |
| 2026-04-22 01:49 | 27.99026 | -82.00775 | 147 ft | 8 kts | 140° |
| 2026-04-22 01:49 | 27.98938 | -82.00763 | 146 ft | 15 kts | 176° |
| 2026-04-22 01:50 | 27.98820 | -82.00754 | 143 ft | 19 kts | 174° |
| 2026-04-22 01:50 | 27.98737 | -82.00749 | 142 ft | 18 kts | 175° |
| 2026-04-22 01:50 | 27.98679 | -82.00796 | 141 ft | 7 kts | 270° |
| 2026-04-22 01:50 | 27.98724 | -82.00862 | 140 ft | 14 kts | 305° |
| 2026-04-22 01:51 | 27.98737 | -82.00943 | 141 ft | 12 kts | 275° |
| 2026-04-22 01:51 | 27.98734 | -82.01038 | 142 ft | 9 kts | 265° |
| 2026-04-22 01:51 | 27.98729 | -82.01111 | 143 ft | 10 kts | 270° |
| 2026-04-22 01:51 | 27.98731 | -82.01218 | 142 ft | 11 kts | 271° |
| 2026-04-22 01:52 | 27.98710 | -82.01305 | 142 ft | 10 kts | 248° |
| 2026-04-22 01:52 | 27.98679 | -82.01384 | 142 ft | 12 kts | 233° |
| 2026-04-22 01:52 | 27.98630 | -82.01458 | 144 ft | 12 kts | 232° |
| 2026-04-22 01:52 | 27.98591 | -82.01534 | 144 ft | 7 kts | 250° |
| 2026-04-22 01:53 | 27.98589 | -82.01549 | 144 ft | 0 kts | 262° |
| 2026-04-22 01:54 | 27.98589 | -82.01548 | 144 ft | 0 kts | 262° |
| 2026-04-22 01:55 | 27.98589 | -82.01549 | 144 ft | 0 kts | 262° |
| 2026-04-22 01:57 | 27.98589 | -82.01548 | 144 ft | 0 kts | 262° |
| 2026-04-22 02:01 | 27.98589 | -82.01549 | 144 ft | 0 kts | 262° |